Terminal Aerodrome Forecast
Issued by NWS

Home | Current Version | Previous Version | Text Only | Print | Product List | Glossary On
Versions: 1 2 3 4 5 6 7 8 9 10 11 12 13 14 15 16 17 18 19 20 21 22 23 24 25 26
000
FTUS41 KBUF 251700
TAFJHW
TAF
KJHW 251738Z 2518/2618 25007KT P6SM SCT200
     FM260100 VRB03KT P6SM SCT200
     FM260500 VRB03KT P6SM BKN090
     FM261400 19008KT P6SM BKN070
     FM261700 20011KT P6SM VCSH BKN040
      AMD LTD TO CLD VIS AND WIND=

USA.gov is the U.S. government's official web portal to all federal, state and local government web resources and services.